Time;durP1;ratioP1;P1;durP2;ratioP2;P2;SDS_P1;SDS_P2;PMS_P1;PMS_P2;Temp;Humidity;BMP_temperature;BMP_pressure;BME280_temperature;BME280_humidity;BME280_pressure;Samples;Min_cycle;Max_cycle;Signal;HPM_P1;HPM_P2
2024/03/08 00:02:23;;;;;;;27.25;17.88;;;11.30;79.00;;;;;;4953037;29;20530;-71
2024/03/08 00:04:49;;;;;;;25.67;17.17;;;11.30;78.80;;;;;;4953097;29;20039;-73
2024/03/08 00:07:15;;;;;;;29.13;17.95;;;11.20;78.90;;;;;;4953035;28;20126;-72
2024/03/08 00:09:40;;;;;;;27.30;18.40;;;11.20;79.20;;;;;;4953072;29;20122;-72
2024/03/08 00:12:06;;;;;;;25.83;18.17;;;11.10;79.50;;;;;;4953829;29;20047;-74
2024/03/08 00:14:33;;;;;;;27.98;18.17;;;11.00;79.10;;;;;;4953910;29;20161;-71
2024/03/08 00:16:58;;;;;;;24.77;17.33;;;10.90;79.20;;;;;;4953963;29;20047;-72
2024/03/08 00:19:24;;;;;;;27.05;18.33;;;10.90;79.30;;;;;;4953629;29;20031;-71
2024/03/08 00:21:50;;;;;;;27.92;17.40;;;10.80;79.50;;;;;;4936437;29;20536;-72
2024/03/08 00:24:15;;;;;;;25.00;17.60;;;10.80;79.50;;;;;;4953589;29;20036;-71
2024/03/08 00:26:42;;;;;;;25.95;18.42;;;10.60;79.00;;;;;;4953483;29;20042;-71
2024/03/08 00:29:07;;;;;;;29.95;17.17;;;10.50;79.60;;;;;;4953422;29;20119;-72
2024/03/08 00:31:33;;;;;;;29.00;18.95;;;10.50;79.80;;;;;;4968020;28;20493;-73
2024/03/08 00:33:59;;;;;;;23.13;15.93;;;10.50;79.90;;;;;;4971934;28;20059;-72
2024/03/08 00:36:25;;;;;;;22.73;16.52;;;10.50;79.80;;;;;;4972088;28;20037;-71
2024/03/08 00:38:50;;;;;;;23.83;15.55;;;10.50;79.60;;;;;;4972052;28;20125;-70
2024/03/08 00:41:16;;;;;;;22.30;14.55;;;10.50;79.60;;;;;;4972117;28;20039;-72
2024/03/08 00:43:42;;;;;;;25.58;15.00;;;10.50;79.70;;;;;;4975623;28;20042;-72
2024/03/08 00:46:07;;;;;;;22.33;14.50;;;10.50;79.60;;;;;;4975333;28;20039;-72
2024/03/08 00:48:33;;;;;;;22.38;14.88;;;10.50;79.10;;;;;;4975338;28;20031;-70
2024/03/08 00:50:59;;;;;;;27.05;14.20;;;10.60;79.20;;;;;;4975235;28;20089;-70
2024/03/08 00:53:24;;;;;;;23.02;14.73;;;10.60;79.40;;;;;;4975172;28;20047;-70
2024/03/08 00:55:50;;;;;;;22.55;14.30;;;10.50;79.00;;;;;;4975298;28;20034;-70
2024/03/08 00:58:16;;;;;;;23.38;14.63;;;10.50;79.20;;;;;;4975568;28;20037;-73
2024/03/08 01:00:41;;;;;;;22.30;14.00;;;10.50;79.50;;;;;;4975786;28;20107;-71
2024/03/08 01:03:07;;;;;;;23.40;13.75;;;10.40;79.50;;;;;;4975363;28;20480;-72
2024/03/08 01:05:35;;;;;;;20.88;14.07;;;10.30;79.50;;;;;;4957652;28;20122;-72
2024/03/08 01:08:03;;;;;;;21.33;13.63;;;10.20;80.10;;;;;;4979631;28;20042;-71
2024/03/08 01:10:29;;;;;;;22.30;13.10;;;10.20;80.40;;;;;;4994358;28;20030;-71
2024/03/08 01:12:56;;;;;;;19.73;12.95;;;10.00;80.70;;;;;;4994391;28;20111;-72
2024/03/08 01:15:22;;;;;;;22.70;13.40;;;9.90;81.90;;;;;;4994453;28;20200;-72
2024/03/08 01:17:48;;;;;;;19.52;12.90;;;10.00;81.10;;;;;;4994622;28;20037;-72
2024/03/08 01:20:14;;;;;;;24.67;14.13;;;10.00;81.20;;;;;;4994382;28;20038;-71
2024/03/08 01:22:40;;;;;;;23.00;13.25;;;9.90;82.40;;;;;;4995445;28;20118;-71
2024/03/08 01:25:08;;;;;;;21.40;13.02;;;9.90;82.10;;;;;;4994432;28;20030;-71
2024/03/08 01:27:35;;;;;;;21.33;13.73;;;9.90;82.20;;;;;;4995281;28;20478;-70
2024/03/08 01:30:01;;;;;;;18.63;12.88;;;9.90;81.90;;;;;;4995123;28;20034;-71
2024/03/08 01:32:26;;;;;;;19.20;13.20;;;9.90;81.70;;;;;;4995037;28;20047;-71
2024/03/08 01:34:52;;;;;;;21.05;12.57;;;9.90;81.80;;;;;;4995342;28;20034;-73
2024/03/08 01:37:18;;;;;;;16.77;11.65;;;9.90;81.60;;;;;;4994788;28;20065;-72
2024/03/08 01:39:43;;;;;;;17.75;12.23;;;9.90;81.80;;;;;;4961106;28;20038;-71
2024/03/08 01:42:12;;;;;;;20.60;12.65;;;9.90;81.50;;;;;;4994889;28;20488;-72
2024/03/08 01:44:39;;;;;;;24.52;13.38;;;9.90;81.80;;;;;;4995135;28;20034;-72
2024/03/08 01:47:05;;;;;;;17.55;12.80;;;9.80;81.60;;;;;;4994674;28;20058;-72
2024/03/08 01:49:31;;;;;;;20.23;13.40;;;9.80;81.80;;;;;;4994210;28;20114;-73
2024/03/08 01:51:57;;;;;;;19.70;12.15;;;9.80;81.70;;;;;;4993866;28;20058;-71
2024/03/08 01:54:23;;;;;;;19.85;12.77;;;9.80;82.50;;;;;;4992987;28;20039;-72
2024/03/08 01:56:49;;;;;;;19.25;12.45;;;9.80;82.10;;;;;;4993799;28;20030;-71
2024/03/08 01:59:16;;;;;;;18.85;11.52;;;9.80;82.00;;;;;;4993474;28;20070;-71
2024/03/08 02:01:42;;;;;;;18.15;12.38;;;9.80;81.80;;;;;;4976079;28;20034;-71
2024/03/08 02:04:08;;;;;;;19.52;12.23;;;9.80;82.10;;;;;;4993353;28;20517;-71
2024/03/08 02:06:33;;;;;;;18.33;12.10;;;9.80;82.20;;;;;;4993880;28;20038;-73
2024/03/08 02:09:00;;;;;;;17.45;11.30;;;9.80;81.80;;;;;;4992782;28;20042;-72
2024/03/08 02:11:26;;;;;;;16.83;11.27;;;9.80;81.90;;;;;;4993835;28;20054;-71
2024/03/08 02:13:52;;;;;;;18.05;11.32;;;9.80;81.90;;;;;;4993199;28;20052;-71
2024/03/08 02:16:22;;;;;;;19.10;11.15;;;9.70;82.20;;;;;;4993091;28;20026;-71
2024/03/08 02:18:47;;;;;;;16.95;11.45;;;9.70;82.50;;;;;;4993260;28;20145;-70
2024/03/08 02:21:18;;;;;;;17.33;10.90;;;9.70;82.30;;;;;;4994049;28;20554;-72
2024/03/08 02:23:43;;;;;;;17.58;11.00;;;9.70;82.20;;;;;;4994057;28;20070;-71
2024/03/08 02:26:09;;;;;;;22.23;11.63;;;9.70;82.20;;;;;;4994317;28;20085;-72
2024/03/08 02:28:36;;;;;;;17.27;10.60;;;9.80;82.30;;;;;;4993457;28;20082;-71
2024/03/08 02:31:02;;;;;;;16.48;11.25;;;9.80;81.90;;;;;;4993203;28;20050;-73
2024/03/08 02:33:28;;;;;;;16.77;10.80;;;9.80;82.00;;;;;;4994257;28;20046;-72
2024/03/08 02:35:55;;;;;;;17.83;11.43;;;9.80;82.20;;;;;;4993768;28;20030;-72
2024/03/08 02:38:24;;;;;;;16.23;11.93;;;9.80;82.50;;;;;;4994128;28;20407;-72
2024/03/08 02:40:51;;;;;;;16.30;11.65;;;9.80;82.20;;;;;;4994043;28;20022;-72
2024/03/08 02:43:17;;;;;;;14.38;10.13;;;9.80;82.20;;;;;;4993312;28;20042;-72
2024/03/08 02:45:45;;;;;;;15.75;10.93;;;9.70;82.10;;;;;;4993494;28;20035;-71
2024/03/08 02:48:11;;;;;;;16.23;11.25;;;9.70;82.30;;;;;;4993495;28;20096;-71
2024/03/08 02:50:37;;;;;;;17.85;11.05;;;9.70;82.40;;;;;;4993429;28;20084;-71
2024/03/08 02:53:05;;;;;;;18.83;11.15;;;9.60;82.50;;;;;;4993634;28;20129;-71
2024/03/08 02:55:31;;;;;;;18.38;11.65;;;9.50;82.60;;;;;;4993683;28;20038;-71
2024/03/08 02:57:57;;;;;;;19.00;11.25;;;9.50;82.70;;;;;;4993683;28;20388;-71
2024/03/08 03:00:23;;;;;;;17.15;11.23;;;9.50;83.00;;;;;;4993523;28;20498;-71
2024/03/08 03:02:53;;;;;;;17.98;11.40;;;9.40;83.20;;;;;;4993478;28;20041;-71
2024/03/08 03:05:22;;;;;;;19.23;11.55;;;9.40;83.50;;;;;;4993039;28;20066;-72
2024/03/08 03:07:48;;;;;;;14.13;10.27;;;9.30;82.90;;;;;;4993210;28;20038;-71
2024/03/08 03:10:17;;;;;;;16.80;10.82;;;9.30;83.60;;;;;;4993339;28;20035;-71
2024/03/08 03:12:44;;;;;;;16.15;10.45;;;9.20;83.40;;;;;;4976467;28;20046;-72
2024/03/08 03:15:11;;;;;;;16.40;10.82;;;9.20;83.60;;;;;;4993297;28;20043;-71
2024/03/08 03:17:37;;;;;;;19.50;10.43;;;9.30;83.30;;;;;;4992281;28;20065;-72
2024/03/08 03:20:14;;;;;;;15.68;10.15;;;9.30;83.60;;;;;;4992282;28;20035;-72
2024/03/08 03:22:41;;;;;;;13.63;10.00;;;9.30;83.80;;;;;;4974525;28;20030;-71
2024/03/08 03:25:11;;;;;;;14.80;10.20;;;9.30;83.30;;;;;;4991966;28;20069;-72
2024/03/08 03:27:36;;;;;;;18.05;9.98;;;9.40;84.30;;;;;;4991997;28;20034;-70
2024/03/08 03:30:20;;;;;;;15.98;9.57;;;9.30;83.50;;;;;;4992656;28;20042;-72
2024/03/08 03:32:47;;;;;;;14.57;9.55;;;9.40;83.30;;;;;;4992556;28;20061;-72
2024/03/08 03:35:14;;;;;;;16.88;9.40;;;9.40;83.20;;;;;;4992892;28;20038;-70
2024/03/08 03:37:42;;;;;;;13.20;8.82;;;9.30;82.90;;;;;;4992635;28;20046;-72
2024/03/08 03:40:09;;;;;;;14.88;9.32;;;9.30;83.30;;;;;;4991758;28;20176;-70
2024/03/08 03:42:35;;;;;;;15.75;9.10;;;9.30;84.00;;;;;;4991735;28;20406;-71
2024/03/08 03:45:02;;;;;;;12.55;8.57;;;9.30;83.30;;;;;;4991983;28;20026;-71
2024/03/08 03:47:28;;;;;;;12.68;8.50;;;9.30;83.30;;;;;;4991860;28;20495;-72
2024/03/08 03:49:54;;;;;;;12.98;8.57;;;9.30;83.20;;;;;;4991916;28;20103;-70
2024/03/08 03:52:19;;;;;;;12.90;8.07;;;9.30;83.10;;;;;;4992044;28;20053;-72
2024/03/08 03:54:45;;;;;;;14.82;9.45;;;9.30;83.10;;;;;;4991873;28;20038;-71
2024/03/08 03:57:12;;;;;;;12.38;8.07;;;9.20;83.30;;;;;;4991546;28;20057;-71
2024/03/08 03:59:38;;;;;;;16.88;10.57;;;9.30;83.40;;;;;;4991648;28;20034;-72
2024/03/08 04:02:03;;;;;;;15.63;8.38;;;9.30;83.40;;;;;;4991897;28;20464;-72
2024/03/08 04:04:29;;;;;;;11.88;8.25;;;9.20;83.30;;;;;;4992059;28;20125;-71
2024/03/08 04:06:55;;;;;;;14.57;8.88;;;9.20;83.40;;;;;;4992880;28;20030;-72
2024/03/08 04:09:22;;;;;;;13.90;9.50;;;9.20;84.10;;;;;;4992401;28;20581;-71
2024/03/08 04:11:48;;;;;;;12.55;8.25;;;9.20;83.30;;;;;;4992485;28;20415;-71
2024/03/08 04:14:14;;;;;;;15.20;9.38;;;9.10;83.30;;;;;;4992711;28;20057;-72
2024/03/08 04:16:40;;;;;;;16.50;9.32;;;9.10;83.70;;;;;;4999993;23;20046;-71
2024/03/08 04:19:05;;;;;;;14.57;9.35;;;9.10;83.80;;;;;;4996308;28;20173;-72
2024/03/08 04:21:31;;;;;;;15.43;9.45;;;9.00;84.00;;;;;;4995971;28;20117;-72
2024/03/08 04:23:57;;;;;;;14.38;9.13;;;9.00;83.80;;;;;;4996426;28;20022;-71
2024/03/08 04:26:22;;;;;;;17.95;9.70;;;8.90;84.00;;;;;;4996284;28;20128;-70
2024/03/08 04:28:48;;;;;;;13.60;9.82;;;8.90;84.40;;;;;;4996316;28;20034;-71
2024/03/08 04:31:15;;;;;;;14.50;9.00;;;8.90;84.40;;;;;;4996407;28;20043;-71
2024/03/08 04:33:41;;;;;;;15.55;9.68;;;9.00;84.60;;;;;;4996064;28;20042;-72
2024/03/08 04:36:07;;;;;;;15.70;9.65;;;9.00;84.20;;;;;;4978686;28;20093;-72
2024/03/08 04:38:33;;;;;;;14.80;9.43;;;9.00;84.40;;;;;;4996004;28;20027;-72
2024/03/08 04:41:01;;;;;;;14.70;9.43;;;9.00;84.20;;;;;;4995566;28;20037;-71
2024/03/08 04:43:30;;;;;;;16.52;9.68;;;9.10;84.10;;;;;;4995245;28;20042;-71
2024/03/08 04:45:55;;;;;;;16.75;10.20;;;9.00;84.00;;;;;;4995893;28;20401;-71
2024/03/08 04:48:21;;;;;;;14.70;9.13;;;9.00;84.20;;;;;;4996015;28;20042;-72
2024/03/08 04:50:47;;;;;;;12.82;9.38;;;8.90;84.40;;;;;;4995763;28;20034;-70
2024/03/08 04:53:13;;;;;;;15.18;9.98;;;8.90;84.50;;;;;;4995180;28;20054;-71
2024/03/08 04:55:39;;;;;;;15.75;9.55;;;8.90;84.50;;;;;;4995126;28;20034;-73
2024/03/08 04:58:07;;;;;;;18.42;10.52;;;8.80;84.60;;;;;;4995196;28;20034;-71
2024/03/08 05:00:33;;;;;;;17.40;9.70;;;8.80;85.10;;;;;;4994631;28;20501;-71
2024/03/08 05:02:59;;;;;;;14.70;9.10;;;8.80;84.90;;;;;;4994748;28;20034;-71
2024/03/08 05:05:26;;;;;;;15.65;8.95;;;8.80;84.40;;;;;;4994639;28;20038;-73
2024/03/08 05:07:51;;;;;;;14.30;9.05;;;8.80;84.70;;;;;;4994309;28;20053;-72
2024/03/08 05:10:17;;;;;;;13.48;9.48;;;8.80;84.60;;;;;;4994233;28;20031;-71
2024/03/08 05:12:43;;;;;;;14.95;9.50;;;8.80;84.70;;;;;;4994038;28;20502;-71
2024/03/08 05:15:09;;;;;;;15.00;9.32;;;8.90;84.60;;;;;;4994725;28;20031;-72
2024/03/08 05:17:35;;;;;;;14.20;8.90;;;8.90;84.70;;;;;;4994302;28;20134;-71
2024/03/08 05:20:00;;;;;;;13.73;9.65;;;8.90;84.40;;;;;;4994449;28;20034;-71
2024/03/08 05:22:26;;;;;;;14.07;8.80;;;8.90;84.60;;;;;;4994333;28;20034;-73
2024/03/08 05:24:52;;;;;;;14.30;9.23;;;8.80;85.10;;;;;;4993915;28;20521;-71
2024/03/08 05:27:17;;;;;;;11.93;9.00;;;8.80;85.10;;;;;;4994332;28;20195;-73
2024/03/08 05:29:43;;;;;;;18.33;9.30;;;8.70;85.20;;;;;;4994385;28;20041;-71
2024/03/08 05:32:09;;;;;;;22.42;9.90;;;8.70;85.00;;;;;;4994407;28;20449;-71
2024/03/08 05:34:35;;;;;;;14.18;9.73;;;8.60;85.20;;;;;;4976616;28;20475;-71
2024/03/08 05:37:02;;;;;;;15.02;8.93;;;8.60;85.30;;;;;;4994091;28;20106;-73
2024/03/08 05:39:27;;;;;;;16.13;9.35;;;8.60;85.40;;;;;;4994187;28;20117;-72
2024/03/08 05:41:55;;;;;;;14.95;8.98;;;8.70;85.20;;;;;;4993812;28;20077;-73
2024/03/08 05:44:20;;;;;;;14.93;9.57;;;8.60;85.50;;;;;;4993711;28;20034;-71
2024/03/08 05:46:46;;;;;;;14.30;9.15;;;8.70;85.40;;;;;;4993656;28;20048;-73
2024/03/08 05:49:13;;;;;;;16.15;9.75;;;8.70;85.20;;;;;;4993656;28;20030;-72
2024/03/08 05:51:40;;;;;;;17.35;9.70;;;8.70;85.10;;;;;;4976797;28;20049;-72
2024/03/08 05:54:15;;;;;;;15.43;9.18;;;8.70;85.10;;;;;;4994593;28;20050;-73
2024/03/08 05:56:42;;;;;;;17.45;9.20;;;8.70;85.10;;;;;;4993580;28;20045;-72
2024/03/08 05:59:08;;;;;;;14.23;8.77;;;8.70;85.10;;;;;;4975876;28;20039;-70
2024/03/08 06:01:36;;;;;;;15.00;8.85;;;8.70;85.10;;;;;;4993188;28;20046;-71
2024/03/08 06:04:02;;;;;;;17.27;9.25;;;8.80;85.00;;;;;;4993309;28;20038;-72
2024/03/08 06:06:28;;;;;;;14.32;9.40;;;8.80;84.90;;;;;;4994402;28;20046;-72
2024/03/08 06:08:56;;;;;;;14.85;9.57;;;8.70;84.90;;;;;;4994114;28;20092;-72
2024/03/08 06:11:22;;;;;;;16.02;9.43;;;8.80;84.90;;;;;;4993895;28;20417;-72
2024/03/08 06:13:49;;;;;;;14.82;9.40;;;8.90;84.80;;;;;;4976498;28;20078;-72
2024/03/08 06:16:15;;;;;;;16.60;9.20;;;9.00;84.80;;;;;;4994237;28;20064;-71
2024/03/08 06:18:41;;;;;;;14.75;9.82;;;9.00;84.50;;;;;;4994098;28;20487;-72
2024/03/08 06:21:09;;;;;;;14.23;9.13;;;8.90;84.40;;;;;;4993952;28;20058;-72
2024/03/08 06:23:38;;;;;;;14.07;9.48;;;8.90;84.70;;;;;;4993834;28;20072;-73
2024/03/08 06:26:07;;;;;;;19.40;9.35;;;9.00;84.70;;;;;;4993493;28;20031;-72
2024/03/08 06:28:34;;;;;;;15.27;9.85;;;9.10;84.60;;;;;;4993019;28;20382;-71
2024/03/08 06:31:01;;;;;;;16.08;9.90;;;9.20;84.30;;;;;;4993032;28;20027;-72
2024/03/08 06:33:27;;;;;;;16.08;10.00;;;9.80;83.80;;;;;;5009124;28;20128;-73
2024/03/08 06:35:57;;;;;;;14.90;9.45;;;10.50;81.00;;;;;;5013078;28;20033;-72
2024/03/08 06:38:23;;;;;;;14.80;9.60;;;10.70;79.90;;;;;;5013283;28;20045;-72
2024/03/08 06:40:48;;;;;;;14.68;9.57;;;11.50;79.00;;;;;;5009355;28;20026;-72
2024/03/08 06:43:16;;;;;;;16.83;10.32;;;12.50;76.00;;;;;;4998728;28;20045;-72
2024/03/08 06:45:50;;;;;;;13.45;9.73;;;13.40;73.50;;;;;;4993713;28;20029;-70
2024/03/08 06:48:17;;;;;;;15.82;9.90;;;14.00;72.40;;;;;;4996203;28;20441;-71
2024/03/08 06:50:44;;;;;;;13.77;9.00;;;14.90;70.90;;;;;;5008510;28;20608;-73
2024/03/08 06:53:11;;;;;;;15.35;9.43;;;15.40;69.40;;;;;;4995753;28;20042;-73
2024/03/08 06:55:37;;;;;;;15.57;10.05;;;15.70;67.90;;;;;;5013154;28;20081;-74
2024/03/08 06:58:02;;;;;;;13.88;9.68;;;15.90;67.80;;;;;;5013316;28;20065;-71
2024/03/08 07:00:30;;;;;;;15.50;9.35;;;16.30;66.70;;;;;;5003008;28;20030;-72
2024/03/08 07:03:00;;;;;;;17.25;11.40;;;16.70;65.00;;;;;;5006701;28;20120;-72
2024/03/08 07:05:29;;;;;;;15.10;10.15;;;17.00;64.50;;;;;;5006699;28;20030;-73
2024/03/08 07:07:54;;;;;;;19.02;9.75;;;17.30;63.70;;;;;;4998530;28;20042;-73
2024/03/08 07:10:24;;;;;;;16.42;9.88;;;17.60;63.00;;;;;;4996138;28;20081;-72
2024/03/08 07:12:50;;;;;;;14.95;9.80;;;18.00;62.10;;;;;;5013015;28;20095;-75
2024/03/08 07:15:19;;;;;;;17.00;10.23;;;18.30;61.80;;;;;;5012983;28;20049;-74
2024/03/08 07:17:45;;;;;;;18.23;9.75;;;18.90;60.70;;;;;;5012639;28;20125;-75
2024/03/08 07:20:13;;;;;;;17.27;10.50;;;19.40;59.60;;;;;;5012828;28;20030;-73
2024/03/08 07:22:39;;;;;;;19.27;9.75;;;19.50;58.90;;;;;;5013081;28;20064;-74
2024/03/08 07:27:43;;;;;;;16.65;9.68;;;20.00;58.40;;;;;;5012712;28;20033;-75
2024/03/08 07:30:12;;;;;;;15.20;9.55;;;20.20;57.10;;;;;;5012932;28;20105;-74
2024/03/08 07:32:37;;;;;;;17.65;9.63;;;20.30;57.10;;;;;;5012600;28;20041;-75
2024/03/08 07:35:04;;;;;;;18.77;10.63;;;20.30;56.80;;;;;;5012867;28;20045;-75
2024/03/08 07:37:30;;;;;;;17.58;10.63;;;20.10;57.10;;;;;;4999717;28;20118;-76
2024/03/08 07:39:56;;;;;;;15.60;9.15;;;20.40;56.70;;;;;;4998245;28;20048;-76
2024/03/08 07:42:22;;;;;;;15.95;10.13;;;20.30;55.70;;;;;;4995364;28;20038;-74
2024/03/08 07:44:50;;;;;;;18.40;9.38;;;19.10;56.10;;;;;;4975242;28;20459;-75
2024/03/08 07:47:17;;;;;;;16.83;9.50;;;17.70;58.50;;;;;;4992905;28;20065;-75
2024/03/08 07:49:43;;;;;;;16.80;10.18;;;16.80;60.30;;;;;;4986229;28;20489;-75
2024/03/08 07:52:15;;;;;;;14.50;9.20;;;16.00;62.10;;;;;;4992313;28;20474;-75
2024/03/08 07:54:41;;;;;;;21.80;9.73;;;15.40;63.00;;;;;;4996582;28;20030;-75
2024/03/08 07:57:07;;;;;;;19.17;10.45;;;15.00;64.40;;;;;;4996883;28;20083;-75
2024/03/08 07:59:32;;;;;;;16.00;10.18;;;14.80;65.10;;;;;;4979551;28;20481;-74
2024/03/08 08:01:59;;;;;;;22.40;10.75;;;14.50;66.10;;;;;;4996906;28;20026;-74
2024/03/08 08:04:25;;;;;;;17.85;9.85;;;14.20;66.80;;;;;;4998627;28;20034;-75
2024/03/08 08:06:51;;;;;;;21.45;10.30;;;14.00;67.60;;;;;;4996726;28;20026;-75
2024/03/08 08:09:28;;;;;;;17.52;10.20;;;14.00;68.20;;;;;;4996434;28;20121;-74
2024/03/08 08:11:54;;;;;;;17.67;9.60;;;14.00;68.30;;;;;;4996291;28;20513;-75
2024/03/08 08:14:21;;;;;;;18.27;10.30;;;13.90;68.60;;;;;;4996517;28;20494;-75
2024/03/08 08:16:48;;;;;;;18.50;10.32;;;13.90;69.10;;;;;;4977961;28;20137;-75
2024/03/08 08:19:15;;;;;;;16.38;9.60;;;13.80;69.30;;;;;;4996037;28;20038;-73
2024/03/08 08:21:41;;;;;;;20.52;10.98;;;13.70;69.70;;;;;;4995295;28;20065;-74
2024/03/08 08:24:07;;;;;;;17.27;9.65;;;13.70;70.00;;;;;;4996084;28;20109;-75
2024/03/08 08:26:34;;;;;;;18.48;9.70;;;13.60;70.30;;;;;;4996153;28;20160;-74
2024/03/08 08:29:00;;;;;;;18.35;10.68;;;13.60;70.70;;;;;;4978437;28;20035;-75
2024/03/08 08:31:26;;;;;;;25.52;13.77;;;13.60;70.80;;;;;;4995826;28;20042;-75
2024/03/08 08:33:57;;;;;;;16.65;10.05;;;13.60;70.90;;;;;;4996106;28;20046;-74
2024/03/08 08:36:29;;;;;;;17.20;9.30;;;13.70;71.00;;;;;;4996121;28;20398;-74
2024/03/08 08:38:56;;;;;;;16.17;10.52;;;13.70;71.10;;;;;;4996011;28;20088;-74
2024/03/08 08:41:21;;;;;;;21.23;10.73;;;13.80;71.60;;;;;;4996253;28;20422;-73
2024/03/08 08:43:49;;;;;;;18.65;11.90;;;13.90;71.10;;;;;;4996126;28;20041;-73
2024/03/08 08:46:17;;;;;;;20.83;10.68;;;13.90;71.00;;;;;;4996332;28;20035;-74
2024/03/08 08:48:45;;;;;;;17.02;9.45;;;13.90;71.10;;;;;;4996135;28;20483;-74
2024/03/08 08:51:13;;;;;;;16.00;9.25;;;14.00;71.00;;;;;;4996091;28;20030;-75
2024/03/08 08:53:43;;;;;;;14.52;8.55;;;14.00;70.90;;;;;;4996009;28;20482;-74
2024/03/08 08:56:15;;;;;;;11.10;7.22;;;14.00;70.80;;;;;;4995629;28;20088;-74
2024/03/08 08:58:42;;;;;;;11.95;6.63;;;14.10;70.90;;;;;;4995784;28;20035;-74
2024/03/08 09:01:09;;;;;;;13.27;6.50;;;14.20;70.80;;;;;;4978369;28;20449;-74
2024/03/08 09:03:36;;;;;;;12.50;7.00;;;14.30;70.70;;;;;;4995064;28;20034;-75
2024/03/08 09:06:09;;;;;;;14.60;6.50;;;14.40;70.80;;;;;;4995738;28;20026;-75
2024/03/08 09:08:36;;;;;;;11.77;6.03;;;14.40;70.70;;;;;;4995537;28;20510;-74
2024/03/08 09:11:01;;;;;;;11.95;6.38;;;14.50;70.60;;;;;;4995956;28;20042;-74
2024/03/08 09:13:27;;;;;;;13.00;6.00;;;14.60;70.50;;;;;;4995482;28;20049;-74
2024/03/08 09:15:53;;;;;;;11.73;5.53;;;14.60;70.60;;;;;;4995220;28;20051;-74
2024/03/08 09:18:19;;;;;;;10.95;5.60;;;14.70;70.50;;;;;;4995415;28;20026;-75
2024/03/08 09:20:44;;;;;;;11.60;5.30;;;14.70;70.50;;;;;;4995502;28;20045;-75
2024/03/08 09:23:10;;;;;;;10.80;5.38;;;14.60;70.60;;;;;;4995515;28;20034;-75
2024/03/08 09:25:36;;;;;;;15.15;5.53;;;14.70;70.80;;;;;;4995264;28;20508;-76
2024/03/08 09:28:02;;;;;;;12.85;5.05;;;14.70;70.70;;;;;;4995267;28;20118;-74
2024/03/08 09:30:28;;;;;;;11.75;5.00;;;14.80;70.60;;;;;;4977625;28;20494;-75
2024/03/08 09:32:54;;;;;;;7.60;4.25;;;14.90;70.40;;;;;;4995173;28;20066;-77
2024/03/08 09:35:20;;;;;;;11.85;4.85;;;15.00;70.20;;;;;;4995105;28;20026;-76
2024/03/08 09:37:47;;;;;;;15.15;5.25;;;15.10;70.00;;;;;;4995337;28;20398;-77
2024/03/08 09:40:15;;;;;;;9.27;4.45;;;15.20;69.70;;;;;;4995090;28;20050;-75
2024/03/08 09:42:42;;;;;;;11.77;4.65;;;15.30;69.60;;;;;;4994997;28;20050;-76
2024/03/08 09:45:12;;;;;;;8.85;5.45;;;15.40;69.10;;;;;;4994830;28;20117;-75
2024/03/08 09:47:45;;;;;;;9.63;4.57;;;15.50;68.80;;;;;;4994781;28;20045;-76
2024/03/08 09:50:12;;;;;;;8.43;4.28;;;15.60;68.40;;;;;;4994728;28;20034;-75
2024/03/08 09:52:43;;;;;;;8.68;4.35;;;15.70;68.20;;;;;;4994843;28;20060;-76
2024/03/08 09:55:11;;;;;;;11.48;4.43;;;15.80;68.00;;;;;;4994756;28;20033;-78
2024/03/08 09:57:37;;;;;;;15.52;5.05;;;15.90;67.90;;;;;;4994590;28;20042;-76
2024/03/08 10:00:24;;;;;;;8.50;3.75;;;16.10;67.50;;;;;;4994826;28;20057;-77
2024/03/08 10:02:52;;;;;;;7.07;3.08;;;16.20;67.20;;;;;;4977148;28;20085;-78
2024/03/08 10:05:18;;;;;;;7.80;3.17;;;16.30;66.40;;;;;;4994905;28;20118;-77
2024/03/08 10:07:44;;;;;;;9.70;3.20;;;16.40;66.30;;;;;;4994578;28;20518;-76
2024/03/08 10:10:12;;;;;;;7.55;3.20;;;16.50;66.00;;;;;;4994544;28;20120;-74
2024/03/08 10:12:39;;;;;;;7.40;3.38;;;16.70;66.20;;;;;;4994519;28;20045;-78
2024/03/08 10:15:08;;;;;;;10.15;3.03;;;16.80;65.80;;;;;;4976082;28;20089;-74
2024/03/08 10:17:35;;;;;;;8.07;3.15;;;16.90;65.20;;;;;;4994443;28;20054;-75
2024/03/08 10:20:02;;;;;;;7.05;3.28;;;17.10;65.10;;;;;;4994378;28;20035;-74
2024/03/08 10:22:29;;;;;;;6.35;3.10;;;17.20;64.80;;;;;;4976728;28;20428;-75
2024/03/08 10:24:55;;;;;;;7.05;3.08;;;17.20;64.20;;;;;;4994022;28;20109;-75
2024/03/08 10:27:20;;;;;;;7.53;3.20;;;17.30;64.10;;;;;;4976330;28;20030;-74
2024/03/08 10:29:51;;;;;;;8.00;3.00;;;17.40;63.60;;;;;;4993802;28;20034;-75
2024/03/08 10:32:17;;;;;;;9.27;3.50;;;17.50;63.10;;;;;;4993788;28;20075;-75
2024/03/08 10:34:44;;;;;;;8.30;3.80;;;17.70;63.00;;;;;;4994009;28;20034;-75
2024/03/08 10:37:17;;;;;;;16.15;6.43;;;17.80;62.40;;;;;;4993821;28;20030;-75
2024/03/08 10:39:52;;;;;;;8.43;3.30;;;17.80;62.10;;;;;;4976141;28;20038;-75
2024/03/08 10:42:22;;;;;;;6.53;2.60;;;17.80;61.80;;;;;;4993728;28;20123;-75
2024/03/08 10:45:07;;;;;;;8.73;2.63;;;17.80;61.70;;;;;;4993622;28;20042;-74
2024/03/08 10:47:40;;;;;;;7.40;2.38;;;17.60;61.60;;;;;;4993554;28;20146;-76
2024/03/08 10:50:12;;;;;;;13.77;2.80;;;17.50;61.80;;;;;;4993531;28;20027;-75
2024/03/08 10:52:39;;;;;;;8.07;2.78;;;17.50;62.10;;;;;;4993376;28;20038;-76
2024/03/08 10:55:12;;;;;;;8.60;2.63;;;17.60;62.00;;;;;;4993354;28;20073;-75
2024/03/08 10:57:38;;;;;;;6.90;2.88;;;17.70;62.00;;;;;;4976005;28;20125;-75
2024/03/08 11:00:09;;;;;;;5.72;2.30;;;17.80;61.60;;;;;;4993395;28;20042;-74
2024/03/08 11:02:36;;;;;;;9.80;2.90;;;17.90;61.80;;;;;;4993606;28;20038;-74
2024/03/08 11:05:03;;;;;;;6.80;2.60;;;18.00;61.30;;;;;;4993485;28;20058;-75
2024/03/08 11:07:34;;;;;;;8.02;2.80;;;18.10;61.20;;;;;;4993401;28;20057;-74
2024/03/08 11:10:06;;;;;;;8.88;2.50;;;18.00;60.80;;;;;;4993222;28;20030;-74
2024/03/08 11:12:37;;;;;;;10.73;3.00;;;18.00;60.70;;;;;;4992987;28;20030;-76
2024/03/08 11:15:11;;;;;;;7.38;2.60;;;18.00;60.80;;;;;;4993219;28;20038;-75
2024/03/08 11:17:38;;;;;;;11.75;3.10;;;18.00;60.70;;;;;;4993042;28;20050;-75
2024/03/08 11:20:15;;;;;;;6.75;2.65;;;17.90;60.50;;;;;;4993226;28;20049;-75
2024/03/08 11:22:52;;;;;;;7.15;2.22;;;17.80;60.10;;;;;;4993230;28;20042;-75
2024/03/08 11:25:41;;;;;;;10.00;2.60;;;17.90;60.10;;;;;;4993000;28;20038;-74
2024/03/08 11:28:10;;;;;;;11.35;2.65;;;17.90;60.00;;;;;;4993074;28;20026;-76
2024/03/08 11:30:38;;;;;;;6.38;2.63;;;17.80;60.00;;;;;;4993113;28;20400;-76
2024/03/08 11:33:04;;;;;;;6.82;2.47;;;17.90;60.00;;;;;;4975341;28;20047;-76
2024/03/08 11:35:29;;;;;;;7.10;2.90;;;18.00;59.70;;;;;;4993012;28;20022;-75
2024/03/08 11:38:00;;;;;;;10.93;3.33;;;18.10;59.40;;;;;;4992795;28;20093;-76
2024/03/08 11:40:26;;;;;;;7.22;2.47;;;18.20;59.00;;;;;;4976145;28;20038;-74
2024/03/08 11:42:52;;;;;;;7.07;2.17;;;18.20;58.80;;;;;;4993351;28;20058;-75
2024/03/08 11:45:21;;;;;;;8.30;2.17;;;18.20;59.10;;;;;;4992916;28;20077;-75
2024/03/08 11:47:47;;;;;;;8.85;2.97;;;18.30;58.30;;;;;;4993141;28;20122;-75
2024/03/08 11:50:13;;;;;;;7.00;2.00;;;18.30;58.00;;;;;;4992539;28;20500;-75
2024/03/08 11:52:39;;;;;;;5.80;2.30;;;18.30;57.70;;;;;;4992914;28;20038;-74
2024/03/08 11:55:06;;;;;;;8.63;2.00;;;18.20;57.30;;;;;;4993049;28;20485;-74
2024/03/08 11:57:32;;;;;;;5.75;2.30;;;18.10;57.30;;;;;;4992638;28;20022;-74
2024/03/08 12:00:06;;;;;;;5.95;2.20;;;18.00;57.60;;;;;;4992961;28;20046;-75
2024/03/08 12:02:34;;;;;;;3.97;1.80;;;18.00;57.70;;;;;;4992577;28;20112;-74
2024/03/08 12:05:03;;;;;;;5.55;1.88;;;18.10;57.30;;;;;;4975125;28;20483;-74
2024/03/08 12:07:29;;;;;;;4.70;2.20;;;18.10;56.70;;;;;;4993089;28;20072;-75
2024/03/08 12:10:24;;;;;;;5.38;1.90;;;18.20;56.80;;;;;;4992691;28;20128;-76
2024/03/08 12:12:52;;;;;;;5.80;1.98;;;18.20;57.30;;;;;;4992659;28;20078;-75
2024/03/08 12:15:20;;;;;;;6.40;1.92;;;18.30;56.40;;;;;;4992789;28;20038;-75
2024/03/08 12:17:48;;;;;;;6.30;2.38;;;18.30;55.80;;;;;;4992667;28;20051;-74
2024/03/08 12:20:22;;;;;;;5.95;2.22;;;18.40;55.40;;;;;;4992672;28;20035;-75
2024/03/08 12:22:48;;;;;;;6.55;2.20;;;18.40;55.20;;;;;;4992391;28;20035;-75
2024/03/08 12:25:16;;;;;;;5.60;1.70;;;18.50;54.60;;;;;;4992556;28;20030;-76
2024/03/08 12:27:42;;;;;;;6.03;2.20;;;18.50;55.30;;;;;;4992463;28;20117;-77
2024/03/08 12:30:33;;;;;;;5.32;2.20;;;18.60;54.50;;;;;;4992514;28;20398;-77
2024/03/08 12:33:00;;;;;;;7.22;2.50;;;18.60;55.10;;;;;;4992711;28;20084;-74
2024/03/08 12:35:30;;;;;;;6.30;2.10;;;18.60;54.00;;;;;;4992683;28;20042;-76
2024/03/08 12:37:57;;;;;;;6.60;2.55;;;18.60;53.80;;;;;;4993397;28;20508;-73
2024/03/08 12:40:28;;;;;;;11.05;3.33;;;18.60;53.80;;;;;;4996519;28;20105;-75
2024/03/08 12:42:56;;;;;;;7.85;2.10;;;18.70;53.90;;;;;;4995959;28;20027;-75
2024/03/08 12:45:24;;;;;;;4.35;1.70;;;18.60;53.50;;;;;;4995927;28;20031;-75